Time;durP1;ratioP1;P1;durP2;ratioP2;P2;SDS_P1;SDS_P2;PMS_P1;PMS_P2;Temp;Humidity;BMP_temperature;BMP_pressure;BME280_temperature;BME280_humidity;BME280_pressure;Samples;Min_cycle;Max_cycle;Signal;HPM_P1;HPM_P2
2023/06/02 00:01:13;;;;;;;4.57;2.40;;;;;;;11.74;68.38;102088.00;5052772;28;20033;-88
2023/06/02 00:03:40;;;;;;;;;;;;;;;11.77;68.40;102090.63;5052952;28;20101;-88
2023/06/02 00:06:11;;;;;;;3.72;2.45;;;;;;;11.71;68.24;102085.41;5053085;28;19913;-89
2023/06/02 00:08:40;;;;;;;4.15;2.30;;;;;;;11.72;68.78;102084.53;5052873;28;20025;-89
2023/06/02 00:11:08;;;;;;;3.88;2.58;;;;;;;11.72;67.63;102085.41;5053011;28;20033;-89
2023/06/02 00:13:33;;;;;;;5.97;2.90;;;;;;;11.63;68.31;102084.53;5052606;28;20045;-88
2023/06/02 00:16:00;;;;;;;5.70;3.30;;;;;;;11.55;68.55;102085.41;5052735;28;20064;-90
2023/06/02 00:18:26;;;;;;;5.40;2.80;;;;;;;11.55;68.32;102087.13;5053006;28;20025;-89
2023/06/02 00:20:52;;;;;;;4.63;2.70;;;;;;;11.51;68.79;102075.88;5052418;28;20032;-89
2023/06/02 00:23:18;;;;;;;4.47;2.60;;;;;;;11.56;68.25;102083.66;5052830;28;20025;-88
2023/06/02 00:25:44;;;;;;;6.40;3.03;;;;;;;11.48;69.07;102083.69;5052097;28;20378;-88
2023/06/02 00:28:10;;;;;;;4.20;2.67;;;;;;;11.43;68.54;102078.44;5052416;28;20029;-89
2023/06/02 00:30:35;;;;;;;7.57;3.23;;;;;;;11.44;67.42;102077.59;5052442;28;20470;-88
2023/06/02 00:33:01;;;;;;;4.60;2.70;;;;;;;11.38;67.98;102081.91;5052753;28;20060;-88
2023/06/02 00:35:27;;;;;;;3.40;2.47;;;;;;;11.37;68.01;102082.81;5052148;28;20047;-88
2023/06/02 00:37:52;;;;;;;4.40;2.50;;;;;;;11.40;67.47;102083.69;5052433;28;20051;-86
2023/06/02 00:40:21;;;;;;;2.93;2.30;;;;;;;11.43;66.85;102075.00;5052747;28;20049;-87
2023/06/02 00:42:46;;;;;;;5.00;2.30;;;;;;;11.38;67.11;102079.31;5052693;28;20112;-88
2023/06/02 00:45:12;;;;;;;4.83;2.50;;;;;;;11.42;67.44;102076.75;5052955;28;20063;-88
2023/06/02 00:47:37;;;;;;;5.43;2.60;;;;;;;11.29;66.78;102072.41;5052253;28;20021;-88
2023/06/02 00:50:03;;;;;;;8.10;3.17;;;;;;;11.31;66.80;102085.38;5052090;28;20025;-87
2023/06/02 00:52:30;;;;;;;5.23;2.80;;;;;;;11.24;66.93;102079.31;5051814;28;20033;-89
2023/06/02 00:54:56;;;;;;;4.30;2.50;;;;;;;11.13;66.75;102066.31;5051020;28;20057;-88
2023/06/02 00:57:21;;;;;;;4.30;2.50;;;;;;;11.11;66.59;102062.84;5052321;28;20075;-89
2023/06/02 00:59:47;;;;;;;10.33;3.90;;;;;;;10.82;65.59;102077.47;5054007;28;20109;-88
2023/06/02 01:02:13;;;;;;;13.10;4.20;;;;;;;10.80;66.35;102084.38;5056153;28;20025;-88
2023/06/02 01:04:40;;;;;;;11.90;3.58;;;;;;;10.78;66.49;102082.66;5056180;28;20049;-89
2023/06/02 01:07:08;;;;;;;5.32;2.80;;;;;;;10.76;66.34;102077.44;5056035;28;20029;-88
2023/06/02 01:09:35;;;;;;;5.63;2.55;;;;;;;10.80;66.65;102070.56;5056095;28;20451;-88
2023/06/02 01:12:27;;;;;;;5.18;2.40;;;;;;;10.99;66.34;102092.22;5055841;28;20469;-88
2023/06/02 01:14:52;;;;;;;7.05;2.90;;;;;;;10.92;66.26;102088.75;5055351;28;20567;-89
2023/06/02 01:17:18;;;;;;;6.63;2.70;;;;;;;10.86;66.72;102067.97;5055568;28;20025;-89
2023/06/02 01:19:45;;;;;;;8.77;2.80;;;;;;;10.90;66.73;102090.50;5056053;28;20418;-89
2023/06/02 01:22:13;;;;;;;;;;;;;;;10.85;66.19;102089.59;5056065;28;20091;-89
2023/06/02 01:24:40;;;;;;;8.30;3.22;;;;;;;10.72;66.41;102069.63;5055757;28;19958;-90
2023/06/02 01:27:09;;;;;;;;;;;;;;;10.84;66.85;102085.25;5056446;28;20104;-90
2023/06/02 01:29:35;;;;;;;7.03;3.00;;;;;;;10.85;66.70;102091.34;5055970;28;20002;-89
2023/06/02 01:32:21;;;;;;;;;;;;;;;10.80;66.55;102091.31;5056158;28;20488;-88
2023/06/02 01:34:52;;;;;;;7.90;3.15;;;;;;;10.77;66.41;102086.97;5054960;28;19924;-87
2023/06/02 01:37:21;;;;;;;9.25;3.13;;;;;;;10.78;66.47;102083.50;5055999;28;20351;-89
2023/06/02 01:39:47;;;;;;;9.20;2.95;;;;;;;10.79;67.08;102085.25;5055285;28;20021;-89
2023/06/02 01:42:14;;;;;;;7.10;2.70;;;;;;;10.79;66.94;102074.00;5055497;28;20021;-89
2023/06/02 01:44:41;;;;;;;8.90;2.92;;;;;;;10.80;66.88;102079.19;5055081;28;20060;-90
2023/06/02 01:47:07;;;;;;;5.15;2.63;;;;;;;10.80;66.76;102075.75;5055743;28;20033;-89
2023/06/02 01:49:32;;;;;;;11.60;3.20;;;;;;;10.70;67.01;102072.22;5054757;28;20036;-90
2023/06/02 01:51:58;;;;;;;9.60;3.27;;;;;;;10.69;67.43;102073.09;5055323;28;20055;-89
2023/06/02 01:54:23;;;;;;;6.27;2.63;;;;;;;10.73;67.16;102072.25;5054771;28;20083;-88
2023/06/02 01:56:48;;;;;;;5.93;2.50;;;;;;;10.75;67.57;102074.84;5054892;28;20071;-86
2023/06/02 01:59:13;;;;;;;7.23;2.53;;;;;;;10.81;67.42;102072.25;5055068;28;20031;-89
2023/06/02 02:01:40;;;;;;;5.63;2.50;;;;;;;10.84;67.10;102069.69;5054655;28;20075;-88
2023/06/02 02:04:06;;;;;;;4.00;2.28;;;;;;;10.90;67.01;102077.50;5055317;28;20037;-89
2023/06/02 02:06:31;;;;;;;5.97;2.37;;;;;;;10.91;67.03;102078.34;5054951;28;20021;-87
2023/06/02 02:08:57;;;;;;;5.07;2.50;;;;;;;10.93;66.85;102079.25;5054539;28;20041;-89
2023/06/02 02:11:22;;;;;;;4.97;2.40;;;;;;;10.90;66.97;102072.31;5054500;28;20048;-87
2023/06/02 02:13:51;;;;;;;4.80;2.13;;;;;;;10.94;66.86;102074.03;5054463;28;20074;-88
2023/06/02 02:16:16;;;;;;;6.95;2.42;;;;;;;10.93;66.89;102077.50;5055281;28;20029;-88
2023/06/02 02:18:43;;;;;;;6.00;2.70;;;;;;;10.93;67.15;102077.50;5055216;28;20512;-88
2023/06/02 02:21:09;;;;;;;4.97;2.20;;;;;;;10.96;66.60;102080.09;5054415;28;20095;-88
2023/06/02 02:23:34;;;;;;;3.95;1.90;;;;;;;10.94;66.84;102068.00;5055482;28;20044;-88
2023/06/02 02:26:00;;;;;;;2.93;2.00;;;;;;;11.06;66.67;102081.00;5054529;28;20025;-88
2023/06/02 02:28:25;;;;;;;2.07;1.53;;;;;;;11.12;67.01;102077.56;5053906;28;20503;-88
2023/06/02 02:30:50;;;;;;;1.93;1.73;;;;;;;11.16;66.47;102081.88;5053822;28;20049;-87
2023/06/02 02:33:16;;;;;;;2.67;1.70;;;;;;;11.14;66.67;102073.25;5054211;28;20029;-88
2023/06/02 02:35:42;;;;;;;4.93;2.00;;;;;;;11.16;66.81;102073.22;5054091;28;20043;-88
2023/06/02 02:38:07;;;;;;;3.50;1.70;;;;;;;11.13;66.41;102067.16;5054239;28;20033;-89
2023/06/02 02:40:32;;;;;;;1.80;1.60;;;;;;;11.13;66.24;102067.16;5053787;28;20024;-88
2023/06/02 02:42:58;;;;;;;4.07;2.10;;;;;;;11.17;66.60;102067.19;5054124;28;20025;-88
2023/06/02 02:45:23;;;;;;;9.27;3.20;;;;;;;11.04;67.40;102066.25;5054033;28;20029;-88
2023/06/02 02:47:48;;;;;;;10.93;3.67;;;;;;;10.97;67.39;102052.41;5053819;28;20389;-88
2023/06/02 02:50:14;;;;;;;9.67;3.33;;;;;;;10.93;67.61;102059.31;5054307;28;20150;-88
2023/06/02 02:52:39;;;;;;;7.13;2.70;;;;;;;10.97;67.40;102060.22;5053615;28;20044;-89
2023/06/02 02:55:07;;;;;;;5.73;2.27;;;;;;;11.02;67.31;102062.81;5054016;28;20473;-88
2023/06/02 02:57:32;;;;;;;3.50;2.30;;;;;;;11.00;67.34;102051.56;5053537;28;20036;-88
2023/06/02 02:59:58;;;;;;;2.87;2.10;;;;;;;11.05;67.47;102060.22;5053610;28;20055;-89
2023/06/02 03:02:23;;;;;;;2.77;1.90;;;;;;;10.99;67.51;102040.28;5054212;28;20103;-88
2023/06/02 03:04:51;;;;;;;2.47;1.90;;;;;;;11.12;67.70;102069.78;5052951;28;20047;-88
2023/06/02 03:07:17;;;;;;;3.20;1.92;;;;;;;11.13;67.83;102066.31;5053430;28;20028;-91
2023/06/02 03:09:42;;;;;;;4.97;2.10;;;;;;;11.10;67.59;102066.28;5053644;28;20025;-90
2023/06/02 03:12:08;;;;;;;6.13;2.30;;;;;;;11.10;68.12;102068.88;5054197;28;20021;-91
2023/06/02 03:14:33;;;;;;;7.27;2.90;;;;;;;11.07;67.82;102068.88;5054095;28;20029;-92
2023/06/02 03:16:58;;;;;;;4.80;2.83;;;;;;;11.00;67.72;102069.72;5053950;28;20032;-90
2023/06/02 03:19:24;;;;;;;8.37;2.90;;;;;;;11.01;67.42;102077.53;5054237;28;20021;-91
2023/06/02 03:21:51;;;;;;;4.83;2.40;;;;;;;11.00;67.45;102080.13;5053381;28;20469;-91
2023/06/02 03:24:18;;;;;;;6.93;2.75;;;;;;;10.96;67.74;102081.84;5054003;28;20021;-89
2023/06/02 03:26:44;;;;;;;;;;;;;;;10.90;67.41;102085.31;5053987;28;20117;-89
2023/06/02 03:29:10;;;;;;;8.77;3.00;;;;;;;10.78;67.70;102085.25;5053876;28;19940;-89
2023/06/02 03:31:36;;;;;;;10.40;3.40;;;;;;;10.72;67.80;102083.50;5053666;28;20287;-90
2023/06/02 03:34:03;;;;;;;10.70;3.20;;;;;;;10.64;68.02;102088.66;5054047;28;20029;-90
2023/06/02 03:36:28;;;;;;;;;;;;;;;10.68;67.23;102088.69;5054244;28;20025;-91
2023/06/02 03:38:54;;;;;;;4.40;2.50;;;;;;;10.67;67.06;102085.19;5053233;28;19913;-90
2023/06/02 03:41:20;;;;;;;5.47;2.40;;;;;;;10.64;66.92;102080.88;5053740;28;20153;-90
2023/06/02 03:43:46;;;;;;;3.67;2.27;;;;;;;10.65;66.86;102082.59;5053502;28;20104;-89
2023/06/02 03:46:11;;;;;;;5.93;2.20;;;;;;;10.65;66.76;102081.72;5052407;28;20378;-90
2023/06/02 03:48:36;;;;;;;6.10;2.80;;;;;;;10.70;67.33;102085.22;5052974;28;20029;-89
2023/06/02 03:51:03;;;;;;;4.73;2.57;;;;;;;10.59;67.14;102074.78;5053582;28;20055;-87
2023/06/02 03:53:30;;;;;;;10.20;3.15;;;;;;;10.58;67.15;102083.44;5053347;28;20044;-90
2023/06/02 03:55:55;;;;;;;5.65;2.95;;;;;;;10.56;67.60;102085.16;5052908;28;20056;-89
2023/06/02 03:58:21;;;;;;;6.23;2.90;;;;;;;10.57;67.83;102091.22;5053717;28;20033;-89
2023/06/02 04:00:48;;;;;;;5.67;3.00;;;;;;;10.57;67.48;102092.09;5053325;28;20517;-91
2023/06/02 04:03:13;;;;;;;6.93;2.78;;;;;;;10.54;67.81;102092.06;5053571;28;20017;-91
2023/06/02 04:05:39;;;;;;;5.93;2.60;;;;;;;10.53;67.37;102095.53;5052925;28;20491;-91
2023/06/02 04:08:04;;;;;;;5.60;2.77;;;;;;;10.55;67.17;102101.59;5053461;28;20021;-91
2023/06/02 04:10:32;;;;;;;3.50;2.47;;;;;;;10.52;67.41;102096.38;5053273;28;20097;-90
2023/06/02 04:12:57;;;;;;;5.00;2.40;;;;;;;10.53;67.23;102105.06;5053465;28;20142;-89
2023/06/02 04:15:24;;;;;;;7.30;2.60;;;;;;;10.49;67.40;102099.84;5052898;28;20041;-89
2023/06/02 04:17:55;;;;;;;3.85;2.50;;;;;;;10.50;67.16;102098.09;5053113;28;20200;-89
2023/06/02 04:20:20;;;;;;;4.15;2.55;;;;;;;10.55;67.41;102100.72;5053375;28;20377;-89
2023/06/02 04:22:45;;;;;;;3.77;2.33;;;;;;;10.56;67.01;102100.75;5052653;28;20021;-88
2023/06/02 04:25:11;;;;;;;4.20;2.40;;;;;;;10.58;66.96;102098.13;5052786;28;20029;-88
2023/06/02 04:27:36;;;;;;;3.80;2.30;;;;;;;10.63;66.93;102109.44;5052718;28;20108;-89
2023/06/02 04:30:02;;;;;;;3.13;2.20;;;;;;;10.62;66.88;102100.75;5053231;28;20048;-90
2023/06/02 04:32:27;;;;;;;8.43;2.78;;;;;;;10.52;66.77;102095.53;5053010;28;20044;-91
2023/06/02 04:34:53;;;;;;;3.80;2.60;;;;;;;10.51;67.03;102094.63;5052161;28;20108;-91
2023/06/02 04:37:20;;;;;;;4.90;2.30;;;;;;;10.50;66.85;102093.78;5056550;28;20657;-91
2023/06/02 04:39:47;;;;;;;4.68;2.42;;;;;;;10.50;67.26;102096.38;5057020;28;20033;-90
2023/06/02 04:42:18;;;;;;;9.25;3.20;;;;;;;10.40;67.22;102096.31;5056602;28;20033;-90
2023/06/02 04:44:47;;;;;;;8.05;3.10;;;;;;;10.36;67.13;102095.41;5056708;28;20078;-91
2023/06/02 04:47:15;;;;;;;9.93;3.65;;;;;;;10.26;67.20;102102.25;5056597;28;20033;-90
2023/06/02 04:49:40;;;;;;;8.07;2.90;;;;;;;10.26;67.38;102102.25;5056572;28;20041;-91
2023/06/02 04:52:07;;;;;;;5.00;2.73;;;;;;;10.25;67.42;102104.84;5056252;28;20083;-90
2023/06/02 04:54:33;;;;;;;7.07;2.70;;;;;;;10.27;67.34;102101.41;5056634;28;20029;-91
2023/06/02 04:56:58;;;;;;;7.07;2.93;;;;;;;10.19;67.15;102095.28;5056529;28;20032;-90
2023/06/02 04:59:24;;;;;;;5.47;2.63;;;;;;;10.29;66.60;102107.47;5056334;28;20112;-90
2023/06/02 05:01:49;;;;;;;7.20;2.87;;;;;;;10.27;66.50;102105.72;5056611;28;20060;-92
2023/06/02 05:04:15;;;;;;;7.07;2.80;;;;;;;10.26;66.89;102111.78;5056332;28;20726;-91
2023/06/02 05:06:40;;;;;;;7.73;3.03;;;;;;;10.18;66.94;102109.13;5056396;28;20074;-89
2023/06/02 05:09:05;;;;;;;4.57;2.53;;;;;;;10.20;66.86;102108.25;5056254;28;20028;-90
2023/06/02 05:11:47;;;;;;;7.87;2.80;;;;;;;10.23;66.76;102112.63;5056052;28;20343;-90
2023/06/02 05:14:12;;;;;;;5.65;2.28;;;;;;;10.27;67.25;102114.38;5056363;28;20033;-90
2023/06/02 05:16:44;;;;;;;5.83;2.20;;;;;;;10.26;67.66;102101.41;5055846;28;20347;-91
2023/06/02 05:19:15;;;;;;;4.50;2.15;;;;;;;10.33;67.22;102110.94;5056336;28;20032;-89
2023/06/02 05:21:43;;;;;;;5.03;2.10;;;;;;;10.43;66.96;102119.69;5055798;28;20032;-90
2023/06/02 05:24:09;;;;;;;4.40;2.08;;;;;;;10.48;66.95;102125.75;5055665;28;20053;-90
2023/06/02 05:26:34;;;;;;;4.13;2.20;;;;;;;10.47;66.56;102111.09;5056000;28;20044;-90
2023/06/02 05:29:00;;;;;;;4.57;2.20;;;;;;;10.46;66.57;102112.78;5055718;28;20454;-89
2023/06/02 05:31:25;;;;;;;6.47;2.30;;;;;;;10.54;66.31;102122.34;5055491;28;20036;-90
2023/06/02 05:33:51;;;;;;;6.23;2.33;;;;;;;10.52;66.51;102122.34;5054898;28;20112;-86
2023/06/02 05:36:19;;;;;;;5.23;2.40;;;;;;;10.52;66.56;102118.88;5054583;28;20029;-88
2023/06/02 05:38:44;;;;;;;6.25;2.30;;;;;;;10.54;66.64;102120.63;5053908;28;20027;-85
2023/06/02 05:41:13;;;;;;;7.20;2.50;;;;;;;10.56;66.02;102131.00;5054410;28;20123;-91
2023/06/02 05:43:38;;;;;;;6.40;2.60;;;;;;;10.40;66.25;102109.28;5055761;28;20590;-90
2023/06/02 05:46:04;;;;;;;8.77;2.53;;;;;;;10.38;66.47;102101.50;5055158;28;20025;-91
2023/06/02 05:48:44;;;;;;;5.07;2.40;;;;;;;10.46;66.09;102111.94;5053971;28;20075;-87
2023/06/02 05:51:10;;;;;;;5.07;2.33;;;;;;;10.47;66.54;102113.69;5054344;28;20044;-85
2023/06/02 05:53:35;;;;;;;10.67;2.77;;;;;;;10.43;66.14;102114.50;5053485;28;20021;-85
2023/06/02 05:56:00;;;;;;;8.20;2.60;;;;;;;10.50;66.21;102127.53;5053789;28;20424;-86
2023/06/02 05:58:25;;;;;;;7.93;2.60;;;;;;;10.48;66.13;102118.88;5053964;28;20112;-85
2023/06/02 06:00:51;;;;;;;6.70;2.40;;;;;;;10.61;65.77;102132.75;5053957;28;20020;-85
2023/06/02 06:03:16;;;;;;;6.73;2.50;;;;;;;10.57;65.45;102132.75;5053997;28;20029;-84
2023/06/02 06:05:41;;;;;;;7.03;2.50;;;;;;;10.61;65.61;102145.75;5053314;28;20047;-85
2023/06/02 06:08:07;;;;;;;3.93;2.20;;;;;;;10.61;65.64;102135.38;5054085;28;20033;-85
2023/06/02 06:10:32;;;;;;;7.97;2.20;;;;;;;10.57;65.57;102123.25;5054105;28;20048;-85
2023/06/02 06:12:57;;;;;;;8.73;2.40;;;;;;;10.54;65.67;102125.81;5053456;28;20171;-84
2023/06/02 06:15:22;;;;;;;5.60;2.20;;;;;;;10.55;65.93;102130.16;5053765;28;20029;-84
2023/06/02 06:17:52;;;;;;;7.63;2.30;;;;;;;10.54;65.51;102136.19;5053890;28;20063;-84
2023/06/02 06:20:19;;;;;;;10.63;2.60;;;;;;;10.54;65.63;102131.00;5054123;28;20108;-88
2023/06/02 06:22:44;;;;;;;4.68;2.13;;;;;;;10.55;65.59;102127.56;5054324;28;20484;-90
2023/06/02 06:25:10;;;;;;;4.67;2.00;;;;;;;10.64;65.72;102132.78;5055193;28;20033;-90
2023/06/02 06:27:36;;;;;;;5.53;2.20;;;;;;;10.69;65.44;102127.63;5054591;28;20036;-91
2023/06/02 06:30:03;;;;;;;4.03;1.75;;;;;;;10.78;65.12;102124.19;5054903;28;20279;-89
2023/06/02 06:32:28;;;;;;;6.25;1.90;;;;;;;10.80;65.36;102125.09;5053594;28;20080;-85
2023/06/02 06:34:53;;;;;;;6.03;2.00;;;;;;;10.89;64.77;102132.91;5052660;28;20100;-85
2023/06/02 06:37:19;;;;;;;7.40;2.07;;;;;;;10.84;64.77;102129.41;5053793;28;20124;-89
2023/06/02 06:39:47;;;;;;;6.77;2.30;;;;;;;10.86;64.91;102143.28;5054375;28;20036;-91
2023/06/02 06:42:12;;;;;;;7.22;2.28;;;;;;;10.82;65.14;102133.72;5053508;28;20063;-91
2023/06/02 06:44:38;;;;;;;4.90;2.00;;;;;;;10.90;64.93;102145.03;5053815;28;20049;-89
2023/06/02 06:47:03;;;;;;;7.90;2.43;;;;;;;10.86;64.70;102135.47;5054371;28;20432;-92
2023/06/02 06:49:29;;;;;;;5.60;2.17;;;;;;;10.91;64.91;102141.59;5054317;28;20061;-90
2023/06/02 06:51:54;;;;;;;5.30;2.00;;;;;;;11.00;65.04;102138.13;5053675;28;20088;-92
2023/06/02 06:54:19;;;;;;;3.87;1.87;;;;;;;11.10;65.04;102141.63;5054734;28;20029;-91
2023/06/02 06:56:45;;;;;;;4.07;2.00;;;;;;;11.07;64.92;102124.31;5053173;28;20037;-93
2023/06/02 06:59:11;;;;;;;6.90;2.00;;;;;;;11.20;64.45;102139.94;5054902;28;20116;-90
2023/06/02 07:01:37;;;;;;;5.27;2.10;;;;;;;11.20;64.36;102139.94;5053434;28;20477;-88
2023/06/02 07:04:03;;;;;;;5.15;2.22;;;;;;;11.17;64.27;102135.59;5053258;28;20021;-87
2023/06/02 07:06:28;;;;;;;3.80;2.00;;;;;;;11.25;64.26;102140.81;5053779;28;20362;-88
2023/06/02 07:08:53;;;;;;;2.97;1.90;;;;;;;11.30;64.41;102136.50;5052979;28;20021;-87
2023/06/02 07:11:19;;;;;;;7.87;2.10;;;;;;;11.33;63.27;102138.25;5053216;28;20025;-87
2023/06/02 07:13:44;;;;;;;6.03;2.20;;;;;;;11.33;63.94;102131.28;5053647;28;20028;-86
2023/06/02 07:16:10;;;;;;;3.73;1.80;;;;;;;11.41;63.92;102118.31;5052378;28;20481;-86
2023/06/02 07:18:35;;;;;;;3.53;1.83;;;;;;;11.62;63.58;102140.00;5052197;28;20021;-85
2023/06/02 07:21:00;;;;;;;3.57;1.90;;;;;;;11.69;63.35;102131.38;5052702;28;20025;-85
2023/06/02 07:23:29;;;;;;;3.50;1.70;;;;;;;11.84;63.27;102136.56;5051943;28;20029;-83
2023/06/02 07:25:58;;;;;;;4.68;1.73;;;;;;;11.95;63.26;102135.69;5052236;28;20052;-84
2023/06/02 07:28:23;;;;;;;6.47;2.20;;;;;;;12.02;61.58;102147.88;5052740;28;20068;-83
2023/06/02 07:30:49;;;;;;;4.60;1.70;;;;;;;12.04;62.98;102143.53;5051967;28;20049;-85
2023/06/02 07:33:15;;;;;;;5.80;2.00;;;;;;;12.12;61.96;102148.72;5053088;28;20029;-85
2023/06/02 07:35:41;;;;;;;4.75;2.10;;;;;;;12.09;62.02;102159.16;5052143;28;20021;-84
2023/06/02 07:38:06;;;;;;;9.00;2.17;;;;;;;12.04;61.17;102151.34;5051941;28;20032;-84
2023/06/02 07:40:31;;;;;;;4.87;1.90;;;;;;;12.01;62.06;102146.13;5052028;28;20052;-84
2023/06/02 07:42:57;;;;;;;4.00;1.90;;;;;;;12.13;62.03;102151.34;5052651;28;20017;-86
2023/06/02 07:45:22;;;;;;;2.87;1.90;;;;;;;12.26;62.26;102156.53;5051692;28;20104;-86
2023/06/02 07:47:47;;;;;;;8.17;2.80;;;;;;;12.16;58.84;102138.31;5052250;28;20031;-84
2023/06/02 07:50:13;;;;;;;9.67;2.63;;;;;;;12.14;60.11;102145.28;5052721;28;20094;-84
2023/06/02 07:52:47;;;;;;;7.57;2.50;;;;;;;12.17;59.99;102144.38;5051044;28;20083;-86
2023/06/02 07:55:13;;;;;;;11.77;2.80;;;;;;;11.96;59.91;102125.31;5052661;28;20040;-88
2023/06/02 07:57:38;;;;;;;10.00;2.90;;;;;;;11.93;60.71;102133.09;5052892;28;20029;-89
2023/06/02 08:00:21;;;;;;;12.07;2.90;;;;;;;11.80;60.07;102123.56;5053203;28;20021;-88
2023/06/02 08:02:47;;;;;;;8.88;2.97;;;;;;;11.82;61.03;102121.81;5053224;28;20029;-88
2023/06/02 08:05:13;;;;;;;8.20;2.85;;;;;;;12.00;60.38;102141.81;5053511;28;20059;-90
2023/06/02 08:07:40;;;;;;;7.18;2.45;;;;;;;12.10;60.03;102138.31;5053415;28;20033;-91
2023/06/02 08:10:06;;;;;;;6.20;2.30;;;;;;;12.24;60.64;102142.66;5057214;28;20481;-90
2023/06/02 08:12:44;;;;;;;10.40;2.80;;;;;;;12.40;58.84;102127.88;5056647;28;20392;-89
2023/06/02 08:15:15;;;;;;;6.95;2.35;;;;;;;12.30;59.25;102124.41;5057120;28;20469;-90
2023/06/02 08:17:41;;;;;;;4.97;2.15;;;;;;;12.50;59.68;102142.59;5057008;28;20047;-92
2023/06/02 08:20:07;;;;;;;7.47;2.43;;;;;;;12.64;58.64;102145.16;5056345;28;20021;-90
2023/06/02 08:22:48;;;;;;;;;;;;;;;12.67;58.89;102148.59;5057001;28;20481;-91
2023/06/02 08:25:15;;;;;;;4.85;2.28;;;;;;;12.64;59.38;102127.81;5057406;28;19919;-89
2023/06/02 08:27:44;;;;;;;8.15;1.95;;;;;;;12.79;58.65;102124.28;5055824;28;20033;-87
2023/06/02 08:30:22;;;;;;;7.22;2.50;;;;;;;12.90;58.85;102131.16;5056123;28;20021;-87
2023/06/02 08:32:48;;;;;;;7.65;2.50;;;;;;;12.96;59.04;102145.03;5062416;28;20039;-87
2023/06/02 08:35:13;;;;;;;5.80;2.40;;;;;;;13.13;58.20;102150.19;5058362;28;20025;-87
2023/06/02 08:37:38;;;;;;;6.10;2.20;;;;;;;13.07;57.94;102147.59;5056284;28;20385;-87
2023/06/02 08:40:05;;;;;;;7.37;2.40;;;;;;;13.16;57.66;102145.81;5048850;28;20029;-88
2023/06/02 08:42:31;;;;;;;;;;;;;;;13.40;57.68;102145.69;5055186;28;20067;-87
2023/06/02 08:44:59;;;;;;;6.60;2.30;;;;;;;13.63;56.44;102149.03;5055100;28;20308;-87
2023/06/02 08:47:29;;;;;;;6.63;2.40;;;;;;;13.73;56.32;102143.75;5054191;28;20021;-87
2023/06/02 08:49:58;;;;;;;6.18;2.20;;;;;;;13.87;57.56;102142.75;5055118;28;20029;-84
2023/06/02 08:52:27;;;;;;;12.00;2.70;;;;;;;14.00;55.14;102133.94;5054694;28;20049;-85
2023/06/02 08:54:55;;;;;;;8.35;2.40;;;;;;;14.20;55.79;102138.09;5054656;28;20020;-87
2023/06/02 08:57:22;;;;;;;6.88;2.22;;;;;;;14.67;55.19;102141.16;5055004;28;20037;-86
2023/06/02 08:59:49;;;;;;;8.52;2.40;;;;;;;15.12;54.54;102136.22;5055176;28;20469;-86
2023/06/02 09:02:15;;;;;;;9.40;2.67;;;;;;;15.27;50.94;102132.53;5055331;28;20143;-86
2023/06/02 09:04:42;;;;;;;9.63;2.58;;;;;;;14.91;51.76;102126.91;5055091;28;20082;-84
2023/06/02 09:07:13;;;;;;;;;;;;;;;15.08;52.96;102131.06;5055546;28;20508;-82
2023/06/02 09:09:40;;;;;;;8.02;2.35;;;;;;;15.36;53.18;102130.66;5054484;28;19913;-84
2023/06/02 09:12:05;;;;;;;5.72;2.10;;;;;;;15.64;53.24;102120.63;5055107;28;20425;-86
2023/06/02 09:14:31;;;;;;;3.65;1.95;;;;;;;15.83;51.41;102131.66;5054854;28;20156;-86
2023/06/02 09:16:56;;;;;;;8.63;2.10;;;;;;;16.00;52.74;102126.16;5054472;28;20428;-84
2023/06/02 09:19:22;;;;;;;7.27;2.43;;;;;;;16.13;52.24;102120.72;5055209;28;20059;-78
2023/06/02 09:21:47;;;;;;;6.70;2.40;;;;;;;16.13;48.73;102134.66;5054771;28;20465;-91
2023/06/02 09:24:29;;;;;;;11.43;2.83;;;;;;;15.80;51.13;102133.47;5055116;28;20100;-86
2023/06/02 09:26:54;;;;;;;8.30;2.60;;;;;;;15.39;49.42;102135.84;5055258;28;20093;-83
2023/06/02 09:29:20;;;;;;;10.93;3.20;;;;;;;15.11;49.51;102133.59;5055243;28;20107;-87
2023/06/02 09:31:51;;;;;;;8.77;2.83;;;;;;;15.02;51.11;102128.50;5053831;28;20098;-84
2023/06/02 09:34:17;;;;;;;10.55;2.70;;;;;;;15.31;52.45;102122.03;5054438;28;20025;-86
2023/06/02 09:36:45;;;;;;;5.43;2.30;;;;;;;15.65;52.43;102117.13;5053921;28;20103;-85
2023/06/02 09:39:10;;;;;;;10.30;3.20;;;;;;;15.43;51.08;102119.19;5054556;28;20029;-85
2023/06/02 09:41:37;;;;;;;7.53;2.47;;;;;;;15.73;53.54;102117.00;5054286;28;20389;-78
2023/06/02 09:44:14;;;;;;;8.93;2.70;;;;;;;15.73;50.16;102123.09;5054170;28;20065;-80
2023/06/02 09:46:44;;;;;;;6.82;2.47;;;;;;;15.78;52.04;102112.53;5054321;28;20053;-81
2023/06/02 09:49:10;;;;;;;10.88;2.97;;;;;;;15.92;50.24;102106.22;5055208;28;20025;-84
2023/06/02 09:51:38;;;;;;;12.02;3.05;;;;;;;15.67;49.58;102106.63;5053306;28;20045;-85
2023/06/02 09:54:08;;;;;;;8.70;2.42;;;;;;;15.92;51.93;102109.72;5054552;28;20029;-86
2023/06/02 09:56:38;;;;;;;6.60;2.20;;;;;;;16.29;52.16;102126.53;5053506;28;20366;-86
2023/06/02 09:59:08;;;;;;;4.45;1.92;;;;;;;16.67;49.76;102111.78;5054307;28;20032;-85
2023/06/02 10:01:34;;;;;;;6.32;2.20;;;;;;;16.96;50.09;102112.97;5053385;28;20120;-85
2023/06/02 10:04:01;;;;;;;9.88;2.95;;;;;;;16.75;49.48;102115.13;5053527;28;20500;-86
2023/06/02 10:06:43;;;;;;;11.75;3.28;;;;;;;16.23;49.03;102116.16;5053577;28;20032;-85
2023/06/02 10:09:29;;;;;;;11.25;3.08;;;;;;;15.85;50.30;102121.19;5049144;28;20037;-86
2023/06/02 10:12:01;;;;;;;8.85;2.97;;;;;;;15.41;50.88;102126.22;5042335;28;20044;-84
2023/06/02 10:14:38;;;;;;;8.38;2.72;;;;;;;15.28;50.89;102121.19;5053595;28;20025;-85
2023/06/02 10:17:46;;;;;;;9.82;3.00;;;;;;;15.38;52.19;102111.41;5053957;28;20063;-85
2023/06/02 10:20:14;;;;;;;10.77;2.92;;;;;;;15.74;51.21;102113.50;5053434;28;20032;-85
2023/06/02 10:23:07;;;;;;;5.85;2.30;;;;;;;16.32;53.30;102110.75;5053695;28;20028;-86
2023/06/02 10:25:50;;;;;;;5.93;2.30;;;;;;;16.94;48.37;102115.63;5053728;28;20388;-86
2023/06/02 10:28:16;;;;;;;9.80;2.67;;;;;;;17.11;51.14;102114.38;5034074;28;20036;-87
2023/06/02 10:30:41;;;;;;;9.67;2.70;;;;;;;16.98;47.88;102121.69;5033758;28;20021;-87
2023/06/02 10:33:07;;;;;;;6.80;2.40;;;;;;;16.88;50.50;102109.63;5033347;28;20030;-87
2023/06/02 10:35:55;;;;;;;8.70;3.38;;;;;;;16.46;49.40;102113.09;5033539;28;20524;-86
2023/06/02 10:38:25;;;;;;;8.68;2.40;;;;;;;16.57;50.60;102116.38;5036170;28;20028;-87
2023/06/02 10:40:54;;;;;;;8.85;3.00;;;;;;;15.83;51.53;102104.59;5035516;28;20080;-86
2023/06/02 10:43:20;;;;;;;11.23;3.28;;;;;;;16.06;50.80;102102.47;5032669;28;20021;-85
2023/06/02 10:45:46;;;;;;;11.38;3.25;;;;;;;16.47;51.72;102106.97;5033138;28;20108;-86
2023/06/02 10:48:49;;;;;;;7.17;2.60;;;;;;;16.80;51.78;102117.66;5032938;28;20108;-85
2023/06/02 10:51:16;;;;;;;8.05;2.72;;;;;;;16.82;50.48;102105.38;4991682;28;20383;-86
2023/06/02 10:54:02;;;;;;;9.88;3.00;;;;;;;16.66;50.80;102110.94;4991513;28;20581;-86
2023/06/02 10:56:40;;;;;;;5.50;2.60;;;;;;;16.70;51.33;102110.88;5022324;28;20032;-86
2023/06/02 10:59:06;;;;;;;6.50;2.33;;;;;;;16.85;51.92;102110.53;5052967;28;20029;-85
2023/06/02 11:01:51;;;;;;;7.85;2.63;;;;;;;16.96;50.53;102120.84;5052110;28;20032;-85
2023/06/02 11:04:31;;;;;;;10.48;3.40;;;;;;;16.54;50.80;102118.19;5052812;28;20035;-85
2023/06/02 11:07:28;;;;;;;12.00;3.83;;;;;;;16.19;51.84;102116.22;5053089;28;20481;-87
2023/06/02 11:10:04;;;;;;;8.50;2.92;;;;;;;16.28;51.91;102114.31;5052551;28;20032;-86
2023/06/02 11:12:48;;;;;;;;;;;;;;;16.48;52.20;102113.94;5053295;28;20021;-85
2023/06/02 11:15:14;;;;;;;10.05;3.00;;;;;;;16.59;51.41;102109.34;5052495;28;20327;-84
2023/06/02 11:17:40;;;;;;;10.87;3.30;;;;;;;16.62;50.83;102111.03;5052505;28;20040;-86
2023/06/02 11:20:06;;;;;;;;;;;;;;;16.20;52.04;102103.97;5052958;28;20028;-85
2023/06/02 11:22:33;;;;;;;8.83;2.80;;;;;;;16.34;53.73;102106.31;5052226;28;19920;-88
2023/06/02 11:27:36;;;;;;;13.13;3.35;;;;;;;16.85;51.24;102104.44;5040552;22;20511;-85
2023/06/02 11:30:08;;;;;;;9.35;3.22;;;;;;;16.59;52.14;102092.75;4992869;28;20039;-83
2023/06/02 11:32:33;;;;;;;14.27;3.50;;;;;;;16.87;51.38;102107.91;4993078;28;20523;-86